sensor_id;sensor_type;location;lat;lon;timestamp;temperature;humidity
47521;DHT22;32291;52.010;4.446;2024-01-30T00:00:25;9.00;99.90
47521;DHT22;32291;52.010;4.446;2024-01-30T00:01:32;9.10;99.90
47521;DHT22;32291;52.010;4.446;2024-01-30T00:02:39;9.10;99.90
47521;DHT22;32291;52.010;4.446;2024-01-30T00:03:46;9.10;99.90
47521;DHT22;32291;52.010;4.446;2024-01-30T00:04:53;9.10;99.90
47521;DHT22;32291;52.010;4.446;2024-01-30T00:06:00;9.10;99.90
47521;DHT22;32291;52.010;4.446;2024-01-30T00:07:10;9.10;99.90
47521;DHT22;32291;52.010;4.446;2024-01-30T00:08:17;9.10;99.90
47521;DHT22;32291;52.010;4.446;2024-01-30T00:09:24;9.20;99.90
47521;DHT22;32291;52.010;4.446;2024-01-30T00:10:31;9.20;99.90
47521;DHT22;32291;52.010;4.446;2024-01-30T00:11:38;9.20;99.90
47521;DHT22;32291;52.010;4.446;2024-01-30T00:12:44;9.20;99.90
47521;DHT22;32291;52.010;4.446;2024-01-30T00:13:52;9.10;99.90
47521;DHT22;32291;52.010;4.446;2024-01-30T00:14:59;9.20;99.90
47521;DHT22;32291;52.010;4.446;2024-01-30T00:16:07;9.10;99.90
47521;DHT22;32291;52.010;4.446;2024-01-30T00:17:15;9.10;99.90
47521;DHT22;32291;52.010;4.446;2024-01-30T00:18:22;9.20;99.90
47521;DHT22;32291;52.010;4.446;2024-01-30T00:19:29;9.20;99.90
47521;DHT22;32291;52.010;4.446;2024-01-30T00:20:31;9.20;99.90
47521;DHT22;32291;52.010;4.446;2024-01-30T00:21:38;9.20;99.90
47521;DHT22;32291;52.010;4.446;2024-01-30T00:22:44;9.20;99.90
47521;DHT22;32291;52.010;4.446;2024-01-30T00:23:51;9.20;99.90
47521;DHT22;32291;52.010;4.446;2024-01-30T00:24:54;9.20;99.90
47521;DHT22;32291;52.010;4.446;2024-01-30T00:26:00;9.20;99.90
47521;DHT22;32291;52.010;4.446;2024-01-30T00:27:08;9.20;99.90
47521;DHT22;32291;52.010;4.446;2024-01-30T00:28:10;9.20;99.90
47521;DHT22;32291;52.010;4.446;2024-01-30T00:29:17;9.20;99.90
47521;DHT22;32291;52.010;4.446;2024-01-30T00:30:25;9.20;99.90
47521;DHT22;32291;52.010;4.446;2024-01-30T00:31:32;9.20;99.90
47521;DHT22;32291;52.010;4.446;2024-01-30T00:32:39;9.20;99.90
47521;DHT22;32291;52.010;4.446;2024-01-30T00:33:46;9.20;99.90
47521;DHT22;32291;52.010;4.446;2024-01-30T00:34:48;9.10;99.90
47521;DHT22;32291;52.010;4.446;2024-01-30T00:35:55;9.20;99.90
47521;DHT22;32291;52.010;4.446;2024-01-30T00:37:03;9.20;99.90
47521;DHT22;32291;52.010;4.446;2024-01-30T00:38:10;9.20;99.90
47521;DHT22;32291;52.010;4.446;2024-01-30T00:39:17;9.20;99.90
47521;DHT22;32291;52.010;4.446;2024-01-30T00:40:31;9.20;99.90
47521;DHT22;32291;52.010;4.446;2024-01-30T00:41:39;9.20;99.90
47521;DHT22;32291;52.010;4.446;2024-01-30T00:42:56;9.20;99.90
47521;DHT22;32291;52.010;4.446;2024-01-30T00:44:02;9.20;99.90
47521;DHT22;32291;52.010;4.446;2024-01-30T00:45:16;9.20;99.90
47521;DHT22;32291;52.010;4.446;2024-01-30T00:46:23;9.20;99.90
47521;DHT22;32291;52.010;4.446;2024-01-30T00:47:30;9.20;99.90
47521;DHT22;32291;52.010;4.446;2024-01-30T00:48:39;9.20;99.90
47521;DHT22;32291;52.010;4.446;2024-01-30T00:49:46;9.30;99.90
47521;DHT22;32291;52.010;4.446;2024-01-30T00:50:53;9.30;99.90
47521;DHT22;32291;52.010;4.446;2024-01-30T00:51:59;9.30;99.90
47521;DHT22;32291;52.010;4.446;2024-01-30T00:53:06;9.30;99.90
47521;DHT22;32291;52.010;4.446;2024-01-30T00:54:09;9.20;99.90
47521;DHT22;32291;52.010;4.446;2024-01-30T00:55:15;9.20;99.90
47521;DHT22;32291;52.010;4.446;2024-01-30T00:56:22;9.20;99.90
47521;DHT22;32291;52.010;4.446;2024-01-30T00:57:26;9.20;99.90
47521;DHT22;32291;52.010;4.446;2024-01-30T00:58:33;9.20;99.90
47521;DHT22;32291;52.010;4.446;2024-01-30T00:59:43;9.20;99.90
47521;DHT22;32291;52.010;4.446;2024-01-30T01:00:50;9.20;99.90
47521;DHT22;32291;52.010;4.446;2024-01-30T01:01:57;9.20;99.90
47521;DHT22;32291;52.010;4.446;2024-01-30T01:02:59;9.20;99.90
47521;DHT22;32291;52.010;4.446;2024-01-30T01:04:06;9.20;99.90
47521;DHT22;32291;52.010;4.446;2024-01-30T01:05:13;9.10;99.90
47521;DHT22;32291;52.010;4.446;2024-01-30T01:06:21;9.10;99.90
47521;DHT22;32291;52.010;4.446;2024-01-30T01:07:28;9.10;99.90
47521;DHT22;32291;52.010;4.446;2024-01-30T01:08:34;9.10;99.90
47521;DHT22;32291;52.010;4.446;2024-01-30T01:09:41;9.10;99.90
47521;DHT22;32291;52.010;4.446;2024-01-30T01:10:48;9.10;99.90
47521;DHT22;32291;52.010;4.446;2024-01-30T01:11:55;9.10;99.90
47521;DHT22;32291;52.010;4.446;2024-01-30T01:13:02;9.10;99.90
47521;DHT22;32291;52.010;4.446;2024-01-30T01:14:08;9.10;99.90
47521;DHT22;32291;52.010;4.446;2024-01-30T01:15:16;9.10;99.90
47521;DHT22;32291;52.010;4.446;2024-01-30T01:16:23;9.10;99.90
47521;DHT22;32291;52.010;4.446;2024-01-30T01:17:29;9.10;99.90
47521;DHT22;32291;52.010;4.446;2024-01-30T01:18:36;9.00;99.90
47521;DHT22;32291;52.010;4.446;2024-01-30T01:19:47;9.00;99.90
47521;DHT22;32291;52.010;4.446;2024-01-30T01:20:54;9.00;99.90
47521;DHT22;32291;52.010;4.446;2024-01-30T01:22:01;9.00;99.90
47521;DHT22;32291;52.010;4.446;2024-01-30T01:23:07;9.00;99.90
47521;DHT22;32291;52.010;4.446;2024-01-30T01:24:15;9.10;99.90
47521;DHT22;32291;52.010;4.446;2024-01-30T01:25:21;9.10;99.90
47521;DHT22;32291;52.010;4.446;2024-01-30T01:26:28;9.10;99.90
47521;DHT22;32291;52.010;4.446;2024-01-30T01:27:35;9.10;99.90
47521;DHT22;32291;52.010;4.446;2024-01-30T01:28:42;9.20;99.90
47521;DHT22;32291;52.010;4.446;2024-01-30T01:29:44;9.20;99.90
47521;DHT22;32291;52.010;4.446;2024-01-30T01:30:51;9.20;99.90
47521;DHT22;32291;52.010;4.446;2024-01-30T01:31:58;9.10;99.90
47521;DHT22;32291;52.010;4.446;2024-01-30T01:33:00;9.10;99.90
47521;DHT22;32291;52.010;4.446;2024-01-30T01:34:04;9.10;99.90
47521;DHT22;32291;52.010;4.446;2024-01-30T01:35:10;9.10;99.90
47521;DHT22;32291;52.010;4.446;2024-01-30T01:36:17;9.10;99.90
47521;DHT22;32291;52.010;4.446;2024-01-30T01:37:19;9.10;99.90
47521;DHT22;32291;52.010;4.446;2024-01-30T01:38:23;9.10;99.90
47521;DHT22;32291;52.010;4.446;2024-01-30T01:39:30;9.10;99.90
47521;DHT22;32291;52.010;4.446;2024-01-30T01:40:40;9.10;99.90
47521;DHT22;32291;52.010;4.446;2024-01-30T01:41:43;9.00;99.90
47521;DHT22;32291;52.010;4.446;2024-01-30T01:42:54;9.00;99.90
47521;DHT22;32291;52.010;4.446;2024-01-30T01:44:02;9.00;99.90
47521;DHT22;32291;52.010;4.446;2024-01-30T01:45:09;9.10;99.90
47521;DHT22;32291;52.010;4.446;2024-01-30T01:46:17;9.10;99.90
47521;DHT22;32291;52.010;4.446;2024-01-30T01:47:24;9.10;99.90
47521;DHT22;32291;52.010;4.446;2024-01-30T01:48:37;9.10;99.90
47521;DHT22;32291;52.010;4.446;2024-01-30T01:49:46;9.10;99.90
47521;DHT22;32291;52.010;4.446;2024-01-30T01:50:53;9.20;99.90
47521;DHT22;32291;52.010;4.446;2024-01-30T01:52:01;9.20;99.90
47521;DHT22;32291;52.010;4.446;2024-01-30T01:53:08;9.20;99.90
47521;DHT22;32291;52.010;4.446;2024-01-30T01:54:16;9.20;99.90
47521;DHT22;32291;52.010;4.446;2024-01-30T01:55:23;9.20;99.90
47521;DHT22;32291;52.010;4.446;2024-01-30T01:56:29;9.10;99.90
47521;DHT22;32291;52.010;4.446;2024-01-30T01:57:41;9.20;99.90
47521;DHT22;32291;52.010;4.446;2024-01-30T01:58:49;9.20;99.90
47521;DHT22;32291;52.010;4.446;2024-01-30T01:59:58;9.20;99.90
47521;DHT22;32291;52.010;4.446;2024-01-30T02:01:05;9.20;99.90
47521;DHT22;32291;52.010;4.446;2024-01-30T02:02:14;9.20;99.90
47521;DHT22;32291;52.010;4.446;2024-01-30T02:03:25;9.10;99.90
47521;DHT22;32291;52.010;4.446;2024-01-30T02:04:28;9.10;99.90
47521;DHT22;32291;52.010;4.446;2024-01-30T02:05:35;9.20;99.90
47521;DHT22;32291;52.010;4.446;2024-01-30T02:06:43;9.20;99.90
47521;DHT22;32291;52.010;4.446;2024-01-30T02:07:51;9.20;99.90
47521;DHT22;32291;52.010;4.446;2024-01-30T02:08:58;9.20;99.90
47521;DHT22;32291;52.010;4.446;2024-01-30T02:10:01;9.10;99.90
47521;DHT22;32291;52.010;4.446;2024-01-30T02:11:08;9.10;99.90
47521;DHT22;32291;52.010;4.446;2024-01-30T02:12:11;9.20;99.90
47521;DHT22;32291;52.010;4.446;2024-01-30T02:13:18;9.20;99.90
47521;DHT22;32291;52.010;4.446;2024-01-30T02:14:25;9.20;99.90
47521;DHT22;32291;52.010;4.446;2024-01-30T02:15:32;9.20;99.90
47521;DHT22;32291;52.010;4.446;2024-01-30T02:16:39;9.20;99.90
47521;DHT22;32291;52.010;4.446;2024-01-30T02:17:46;9.20;99.90
47521;DHT22;32291;52.010;4.446;2024-01-30T02:18:53;9.20;99.90
47521;DHT22;32291;52.010;4.446;2024-01-30T02:19:59;9.20;99.90
47521;DHT22;32291;52.010;4.446;2024-01-30T02:21:06;9.20;99.90
47521;DHT22;32291;52.010;4.446;2024-01-30T02:22:14;9.20;99.90
47521;DHT22;32291;52.010;4.446;2024-01-30T02:23:24;9.30;99.90
47521;DHT22;32291;52.010;4.446;2024-01-30T02:24:29;9.30;99.90
47521;DHT22;32291;52.010;4.446;2024-01-30T02:25:40;9.30;99.90
47521;DHT22;32291;52.010;4.446;2024-01-30T02:26:53;9.30;99.90
47521;DHT22;32291;52.010;4.446;2024-01-30T02:28:00;9.40;99.90
47521;DHT22;32291;52.010;4.446;2024-01-30T02:29:07;9.40;99.90
47521;DHT22;32291;52.010;4.446;2024-01-30T02:30:14;9.40;99.90
47521;DHT22;32291;52.010;4.446;2024-01-30T02:31:16;9.40;99.90
47521;DHT22;32291;52.010;4.446;2024-01-30T02:32:23;9.40;99.90
47521;DHT22;32291;52.010;4.446;2024-01-30T02:33:30;9.50;99.90
47521;DHT22;32291;52.010;4.446;2024-01-30T02:34:37;9.50;99.90
47521;DHT22;32291;52.010;4.446;2024-01-30T02:35:44;9.50;99.90
47521;DHT22;32291;52.010;4.446;2024-01-30T02:36:49;9.40;99.90
47521;DHT22;32291;52.010;4.446;2024-01-30T02:37:56;9.50;99.90
47521;DHT22;32291;52.010;4.446;2024-01-30T02:39:03;9.50;99.90
47521;DHT22;32291;52.010;4.446;2024-01-30T02:40:11;9.50;99.90
47521;DHT22;32291;52.010;4.446;2024-01-30T02:41:18;9.50;99.90
47521;DHT22;32291;52.010;4.446;2024-01-30T02:42:25;9.50;99.90
47521;DHT22;32291;52.010;4.446;2024-01-30T02:43:32;9.50;99.90
47521;DHT22;32291;52.010;4.446;2024-01-30T02:44:39;9.50;99.90
47521;DHT22;32291;52.010;4.446;2024-01-30T02:45:46;9.50;99.90
47521;DHT22;32291;52.010;4.446;2024-01-30T02:46:48;9.50;99.90
47521;DHT22;32291;52.010;4.446;2024-01-30T02:47:55;9.50;99.90
47521;DHT22;32291;52.010;4.446;2024-01-30T02:49:01;9.50;99.90
47521;DHT22;32291;52.010;4.446;2024-01-30T02:50:09;9.50;99.90
47521;DHT22;32291;52.010;4.446;2024-01-30T02:51:16;9.50;99.90
47521;DHT22;32291;52.010;4.446;2024-01-30T02:52:18;9.40;99.90
47521;DHT22;32291;52.010;4.446;2024-01-30T02:53:26;9.40;99.90
47521;DHT22;32291;52.010;4.446;2024-01-30T02:54:33;9.40;99.90
47521;DHT22;32291;52.010;4.446;2024-01-30T02:55:35;9.40;99.90
47521;DHT22;32291;52.010;4.446;2024-01-30T02:56:42;9.40;99.90
47521;DHT22;32291;52.010;4.446;2024-01-30T02:57:44;9.30;99.90
47521;DHT22;32291;52.010;4.446;2024-01-30T02:58:51;9.40;99.90
47521;DHT22;32291;52.010;4.446;2024-01-30T02:59:59;9.40;99.90
47521;DHT22;32291;52.010;4.446;2024-01-30T03:01:01;9.40;99.90
47521;DHT22;32291;52.010;4.446;2024-01-30T03:02:11;9.40;99.90
47521;DHT22;32291;52.010;4.446;2024-01-30T03:03:17;9.40;99.90
47521;DHT22;32291;52.010;4.446;2024-01-30T03:04:20;9.30;99.90
47521;DHT22;32291;52.010;4.446;2024-01-30T03:05:26;9.40;99.90
47521;DHT22;32291;52.010;4.446;2024-01-30T03:06:29;9.40;99.90
47521;DHT22;32291;52.010;4.446;2024-01-30T03:07:36;9.40;99.90
47521;DHT22;32291;52.010;4.446;2024-01-30T03:08:43;9.40;99.90
47521;DHT22;32291;52.010;4.446;2024-01-30T03:09:50;9.40;99.90
47521;DHT22;32291;52.010;4.446;2024-01-30T03:10:57;9.40;99.90
47521;DHT22;32291;52.010;4.446;2024-01-30T03:12:04;9.40;99.90
47521;DHT22;32291;52.010;4.446;2024-01-30T03:13:07;9.40;99.90
47521;DHT22;32291;52.010;4.446;2024-01-30T03:14:16;9.40;99.90
47521;DHT22;32291;52.010;4.446;2024-01-30T03:15:23;9.40;99.90
47521;DHT22;32291;52.010;4.446;2024-01-30T03:16:30;9.40;99.90
47521;DHT22;32291;52.010;4.446;2024-01-30T03:17:37;9.50;99.90
47521;DHT22;32291;52.010;4.446;2024-01-30T03:18:44;9.50;99.90
47521;DHT22;32291;52.010;4.446;2024-01-30T03:19:51;9.50;99.90
47521;DHT22;32291;52.010;4.446;2024-01-30T03:20:58;9.50;99.90
47521;DHT22;32291;52.010;4.446;2024-01-30T03:22:05;9.40;99.90
47521;DHT22;32291;52.010;4.446;2024-01-30T03:23:12;9.40;99.90
47521;DHT22;32291;52.010;4.446;2024-01-30T03:24:19;9.40;99.90
47521;DHT22;32291;52.010;4.446;2024-01-30T03:25:21;9.50;99.90
47521;DHT22;32291;52.010;4.446;2024-01-30T03:26:28;9.50;99.90
47521;DHT22;32291;52.010;4.446;2024-01-30T03:27:34;9.50;99.90
47521;DHT22;32291;52.010;4.446;2024-01-30T03:28:41;9.50;99.90
47521;DHT22;32291;52.010;4.446;2024-01-30T03:29:48;9.50;99.90
47521;DHT22;32291;52.010;4.446;2024-01-30T03:30:55;9.50;99.90
47521;DHT22;32291;52.010;4.446;2024-01-30T03:31:57;9.50;99.90
47521;DHT22;32291;52.010;4.446;2024-01-30T03:33:04;9.60;99.90
47521;DHT22;32291;52.010;4.446;2024-01-30T03:34:06;9.50;99.90
47521;DHT22;32291;52.010;4.446;2024-01-30T03:35:13;9.50;99.90
47521;DHT22;32291;52.010;4.446;2024-01-30T03:36:16;9.50;99.90
47521;DHT22;32291;52.010;4.446;2024-01-30T03:37:23;9.60;99.90
47521;DHT22;32291;52.010;4.446;2024-01-30T03:38:30;9.60;99.90
47521;DHT22;32291;52.010;4.446;2024-01-30T03:39:39;9.60;99.90
47521;DHT22;32291;52.010;4.446;2024-01-30T03:40:41;9.60;99.90
47521;DHT22;32291;52.010;4.446;2024-01-30T03:41:48;9.60;99.90
47521;DHT22;32291;52.010;4.446;2024-01-30T03:42:50;9.60;99.90
47521;DHT22;32291;52.010;4.446;2024-01-30T03:43:53;9.60;99.90
47521;DHT22;32291;52.010;4.446;2024-01-30T03:44:59;9.60;99.90
47521;DHT22;32291;52.010;4.446;2024-01-30T03:46:06;9.60;99.90
47521;DHT22;32291;52.010;4.446;2024-01-30T03:47:14;9.50;99.90
47521;DHT22;32291;52.010;4.446;2024-01-30T03:48:16;9.60;99.90
47521;DHT22;32291;52.010;4.446;2024-01-30T03:49:23;9.60;99.90
47521;DHT22;32291;52.010;4.446;2024-01-30T03:50:25;9.60;99.90
47521;DHT22;32291;52.010;4.446;2024-01-30T03:51:32;9.60;99.90
47521;DHT22;32291;52.010;4.446;2024-01-30T03:52:39;9.60;99.90
47521;DHT22;32291;52.010;4.446;2024-01-30T03:53:46;9.60;99.90
47521;DHT22;32291;52.010;4.446;2024-01-30T03:54:53;9.60;99.90
47521;DHT22;32291;52.010;4.446;2024-01-30T03:56:00;9.60;99.90
47521;DHT22;32291;52.010;4.446;2024-01-30T03:57:07;9.60;99.90
47521;DHT22;32291;52.010;4.446;2024-01-30T03:58:14;9.60;99.90
47521;DHT22;32291;52.010;4.446;2024-01-30T03:59:21;9.60;99.90
47521;DHT22;32291;52.010;4.446;2024-01-30T04:00:30;9.70;99.90
47521;DHT22;32291;52.010;4.446;2024-01-30T04:01:37;9.60;99.90
47521;DHT22;32291;52.010;4.446;2024-01-30T04:02:45;9.60;99.90
47521;DHT22;32291;52.010;4.446;2024-01-30T04:03:47;9.60;99.90
47521;DHT22;32291;52.010;4.446;2024-01-30T04:04:54;9.60;99.90
47521;DHT22;32291;52.010;4.446;2024-01-30T04:06:00;9.60;99.90
47521;DHT22;32291;52.010;4.446;2024-01-30T04:07:03;9.60;99.90
47521;DHT22;32291;52.010;4.446;2024-01-30T04:08:06;9.60;99.90
47521;DHT22;32291;52.010;4.446;2024-01-30T04:09:09;9.60;99.90
47521;DHT22;32291;52.010;4.446;2024-01-30T04:10:16;9.60;99.90
47521;DHT22;32291;52.010;4.446;2024-01-30T04:11:23;9.60;99.90
47521;DHT22;32291;52.010;4.446;2024-01-30T04:12:30;9.60;99.90
47521;DHT22;32291;52.010;4.446;2024-01-30T04:13:38;9.60;99.90
47521;DHT22;32291;52.010;4.446;2024-01-30T04:14:41;9.60;99.90
47521;DHT22;32291;52.010;4.446;2024-01-30T04:15:47;9.60;99.90
47521;DHT22;32291;52.010;4.446;2024-01-30T04:16:54;9.60;99.90
47521;DHT22;32291;52.010;4.446;2024-01-30T04:18:01;9.60;99.90
47521;DHT22;32291;52.010;4.446;2024-01-30T04:19:08;9.60;99.90
47521;DHT22;32291;52.010;4.446;2024-01-30T04:20:15;9.60;99.90
47521;DHT22;32291;52.010;4.446;2024-01-30T04:21:18;9.60;99.90
47521;DHT22;32291;52.010;4.446;2024-01-30T04:22:26;9.60;99.90
47521;DHT22;32291;52.010;4.446;2024-01-30T04:23:33;9.60;99.90
47521;DHT22;32291;52.010;4.446;2024-01-30T04:24:37;9.60;99.90
47521;DHT22;32291;52.010;4.446;2024-01-30T04:25:44;9.60;99.90
47521;DHT22;32291;52.010;4.446;2024-01-30T04:26:51;9.70;99.90
47521;DHT22;32291;52.010;4.446;2024-01-30T04:28:01;9.70;99.90
47521;DHT22;32291;52.010;4.446;2024-01-30T04:29:08;9.70;99.90
47521;DHT22;32291;52.010;4.446;2024-01-30T04:30:15;9.60;99.90
47521;DHT22;32291;52.010;4.446;2024-01-30T04:31:22;9.60;99.90
47521;DHT22;32291;52.010;4.446;2024-01-30T04:32:24;9.60;99.90
47521;DHT22;32291;52.010;4.446;2024-01-30T04:33:26;9.60;99.90
47521;DHT22;32291;52.010;4.446;2024-01-30T04:34:33;9.60;99.90
47521;DHT22;32291;52.010;4.446;2024-01-30T04:35:40;9.60;99.90
47521;DHT22;32291;52.010;4.446;2024-01-30T04:36:47;9.60;99.90
47521;DHT22;32291;52.010;4.446;2024-01-30T04:37:49;9.60;99.90
47521;DHT22;32291;52.010;4.446;2024-01-30T04:38:51;9.50;99.90
47521;DHT22;32291;52.010;4.446;2024-01-30T04:39:53;9.60;99.90
47521;DHT22;32291;52.010;4.446;2024-01-30T04:40:55;9.60;99.90
47521;DHT22;32291;52.010;4.446;2024-01-30T04:42:02;9.50;99.90
47521;DHT22;32291;52.010;4.446;2024-01-30T04:43:05;9.60;99.90
47521;DHT22;32291;52.010;4.446;2024-01-30T04:44:12;9.60;99.90
47521;DHT22;32291;52.010;4.446;2024-01-30T04:45:14;9.60;99.90
47521;DHT22;32291;52.010;4.446;2024-01-30T04:46:21;9.60;99.90
47521;DHT22;32291;52.010;4.446;2024-01-30T04:47:29;9.60;99.90
47521;DHT22;32291;52.010;4.446;2024-01-30T04:48:36;9.60;99.90
47521;DHT22;32291;52.010;4.446;2024-01-30T04:49:43;9.60;99.90
47521;DHT22;32291;52.010;4.446;2024-01-30T04:50:50;9.60;99.90
47521;DHT22;32291;52.010;4.446;2024-01-30T04:51:52;9.60;99.90
47521;DHT22;32291;52.010;4.446;2024-01-30T04:52:59;9.60;99.90
47521;DHT22;32291;52.010;4.446;2024-01-30T04:54:05;9.60;99.90
47521;DHT22;32291;52.010;4.446;2024-01-30T04:55:08;9.60;99.90
47521;DHT22;32291;52.010;4.446;2024-01-30T04:56:15;9.60;99.90
47521;DHT22;32291;52.010;4.446;2024-01-30T04:57:22;9.70;99.90
47521;DHT22;32291;52.010;4.446;2024-01-30T04:58:28;9.70;99.90
47521;DHT22;32291;52.010;4.446;2024-01-30T04:59:35;9.70;99.90
47521;DHT22;32291;52.010;4.446;2024-01-30T05:00:38;9.70;99.90
47521;DHT22;32291;52.010;4.446;2024-01-30T05:01:45;9.60;99.90
47521;DHT22;32291;52.010;4.446;2024-01-30T05:02:51;9.70;99.90
47521;DHT22;32291;52.010;4.446;2024-01-30T05:03:53;9.70;99.90
47521;DHT22;32291;52.010;4.446;2024-01-30T05:05:00;9.70;99.90
47521;DHT22;32291;52.010;4.446;2024-01-30T05:06:02;9.70;99.90
47521;DHT22;32291;52.010;4.446;2024-01-30T05:07:10;9.70;99.90
47521;DHT22;32291;52.010;4.446;2024-01-30T05:08:12;9.70;99.90
47521;DHT22;32291;52.010;4.446;2024-01-30T05:09:14;9.70;99.90
47521;DHT22;32291;52.010;4.446;2024-01-30T05:10:21;9.70;99.90
47521;DHT22;32291;52.010;4.446;2024-01-30T05:11:28;9.70;99.90
47521;DHT22;32291;52.010;4.446;2024-01-30T05:12:34;9.80;99.90
47521;DHT22;32291;52.010;4.446;2024-01-30T05:13:41;9.70;99.90
47521;DHT22;32291;52.010;4.446;2024-01-30T05:14:48;9.70;99.90
47521;DHT22;32291;52.010;4.446;2024-01-30T05:15:55;9.70;99.90
47521;DHT22;32291;52.010;4.446;2024-01-30T05:17:02;9.70;99.90
47521;DHT22;32291;52.010;4.446;2024-01-30T05:18:04;9.80;99.90
47521;DHT22;32291;52.010;4.446;2024-01-30T05:19:11;9.80;99.90
47521;DHT22;32291;52.010;4.446;2024-01-30T05:20:19;9.80;99.90
47521;DHT22;32291;52.010;4.446;2024-01-30T05:21:26;9.80;99.90
47521;DHT22;32291;52.010;4.446;2024-01-30T05:22:33;9.80;99.90
47521;DHT22;32291;52.010;4.446;2024-01-30T05:23:38;9.80;99.90
47521;DHT22;32291;52.010;4.446;2024-01-30T05:24:42;9.80;99.90
47521;DHT22;32291;52.010;4.446;2024-01-30T05:25:49;9.80;99.90
47521;DHT22;32291;52.010;4.446;2024-01-30T05:26:51;9.80;99.90
47521;DHT22;32291;52.010;4.446;2024-01-30T05:27:58;9.80;99.90
47521;DHT22;32291;52.010;4.446;2024-01-30T05:29:07;9.80;99.90
47521;DHT22;32291;52.010;4.446;2024-01-30T05:30:14;9.70;99.90
47521;DHT22;32291;52.010;4.446;2024-01-30T05:31:17;9.70;99.90
47521;DHT22;32291;52.010;4.446;2024-01-30T05:32:23;9.70;99.90
47521;DHT22;32291;52.010;4.446;2024-01-30T05:33:30;9.80;99.90
47521;DHT22;32291;52.010;4.446;2024-01-30T05:34:38;9.80;99.90
47521;DHT22;32291;52.010;4.446;2024-01-30T05:35:45;9.80;99.90
47521;DHT22;32291;52.010;4.446;2024-01-30T05:36:52;9.80;99.90
47521;DHT22;32291;52.010;4.446;2024-01-30T05:37:59;9.80;99.90
47521;DHT22;32291;52.010;4.446;2024-01-30T05:39:06;9.80;99.90
47521;DHT22;32291;52.010;4.446;2024-01-30T05:40:14;9.80;99.90
47521;DHT22;32291;52.010;4.446;2024-01-30T05:41:21;9.80;99.90
47521;DHT22;32291;52.010;4.446;2024-01-30T05:42:28;9.80;99.90
47521;DHT22;32291;52.010;4.446;2024-01-30T05:43:30;9.80;99.90
47521;DHT22;32291;52.010;4.446;2024-01-30T05:44:37;9.80;99.90
47521;DHT22;32291;52.010;4.446;2024-01-30T05:45:44;9.80;99.90
47521;DHT22;32291;52.010;4.446;2024-01-30T05:46:51;9.80;99.90
47521;DHT22;32291;52.010;4.446;2024-01-30T05:48:00;9.80;99.90
47521;DHT22;32291;52.010;4.446;2024-01-30T05:49:02;9.80;99.90
47521;DHT22;32291;52.010;4.446;2024-01-30T05:50:09;9.90;99.90
47521;DHT22;32291;52.010;4.446;2024-01-30T05:51:16;9.90;99.90
47521;DHT22;32291;52.010;4.446;2024-01-30T05:52:23;9.80;99.90
47521;DHT22;32291;52.010;4.446;2024-01-30T05:53:29;9.90;99.90
47521;DHT22;32291;52.010;4.446;2024-01-30T05:54:32;9.90;99.90
47521;DHT22;32291;52.010;4.446;2024-01-30T05:55:39;9.90;99.90
47521;DHT22;32291;52.010;4.446;2024-01-30T05:56:41;9.90;99.90
47521;DHT22;32291;52.010;4.446;2024-01-30T05:57:43;9.90;99.90
47521;DHT22;32291;52.010;4.446;2024-01-30T05:58:50;10.00;99.90
47521;DHT22;32291;52.010;4.446;2024-01-30T05:59:57;10.00;99.90
47521;DHT22;32291;52.010;4.446;2024-01-30T06:01:08;10.00;99.90
47521;DHT22;32291;52.010;4.446;2024-01-30T06:02:16;10.10;99.90
47521;DHT22;32291;52.010;4.446;2024-01-30T06:03:25;10.10;99.90
47521;DHT22;32291;52.010;4.446;2024-01-30T06:04:27;10.10;99.90
47521;DHT22;32291;52.010;4.446;2024-01-30T06:05:34;10.10;99.90
47521;DHT22;32291;52.010;4.446;2024-01-30T06:06:41;10.00;99.90
47521;DHT22;32291;52.010;4.446;2024-01-30T06:07:49;10.10;99.90
47521;DHT22;32291;52.010;4.446;2024-01-30T06:08:51;10.10;99.90
47521;DHT22;32291;52.010;4.446;2024-01-30T06:09:53;10.10;99.90
47521;DHT22;32291;52.010;4.446;2024-01-30T06:11:01;10.00;99.90
47521;DHT22;32291;52.010;4.446;2024-01-30T06:12:10;10.10;99.90
47521;DHT22;32291;52.010;4.446;2024-01-30T06:13:20;10.10;99.90
47521;DHT22;32291;52.010;4.446;2024-01-30T06:14:27;10.10;99.90
47521;DHT22;32291;52.010;4.446;2024-01-30T06:15:33;10.10;99.90
47521;DHT22;32291;52.010;4.446;2024-01-30T06:16:40;10.10;99.90
47521;DHT22;32291;52.010;4.446;2024-01-30T06:17:48;10.10;99.90
47521;DHT22;32291;52.010;4.446;2024-01-30T06:18:56;10.20;99.90
47521;DHT22;32291;52.010;4.446;2024-01-30T06:20:03;10.10;99.90
47521;DHT22;32291;52.010;4.446;2024-01-30T06:21:11;10.20;99.90
47521;DHT22;32291;52.010;4.446;2024-01-30T06:22:18;10.20;99.90
47521;DHT22;32291;52.010;4.446;2024-01-30T06:23:26;10.20;99.90
47521;DHT22;32291;52.010;4.446;2024-01-30T06:24:33;10.20;99.90
47521;DHT22;32291;52.010;4.446;2024-01-30T06:25:41;10.30;99.90
47521;DHT22;32291;52.010;4.446;2024-01-30T06:26:48;10.30;99.90
47521;DHT22;32291;52.010;4.446;2024-01-30T06:27:50;10.30;99.90
47521;DHT22;32291;52.010;4.446;2024-01-30T06:28:52;10.30;99.90
47521;DHT22;32291;52.010;4.446;2024-01-30T06:30:00;10.20;99.90
47521;DHT22;32291;52.010;4.446;2024-01-30T06:31:03;10.20;99.90
47521;DHT22;32291;52.010;4.446;2024-01-30T06:32:10;10.20;99.90
47521;DHT22;32291;52.010;4.446;2024-01-30T06:33:16;10.20;99.90
47521;DHT22;32291;52.010;4.446;2024-01-30T06:34:24;10.20;99.90
47521;DHT22;32291;52.010;4.446;2024-01-30T06:35:32;10.20;99.90
47521;DHT22;32291;52.010;4.446;2024-01-30T06:36:34;10.30;99.90
47521;DHT22;32291;52.010;4.446;2024-01-30T06:37:36;10.30;99.90
47521;DHT22;32291;52.010;4.446;2024-01-30T06:38:46;10.30;99.90
47521;DHT22;32291;52.010;4.446;2024-01-30T06:39:53;10.30;99.90
47521;DHT22;32291;52.010;4.446;2024-01-30T06:41:03;10.30;99.90
47521;DHT22;32291;52.010;4.446;2024-01-30T06:42:10;10.40;99.90
47521;DHT22;32291;52.010;4.446;2024-01-30T06:43:18;10.30;99.90
47521;DHT22;32291;52.010;4.446;2024-01-30T06:44:25;10.40;99.90
47521;DHT22;32291;52.010;4.446;2024-01-30T06:45:32;10.40;99.90
47521;DHT22;32291;52.010;4.446;2024-01-30T06:46:39;10.40;99.90
47521;DHT22;32291;52.010;4.446;2024-01-30T06:47:46;10.40;99.90
47521;DHT22;32291;52.010;4.446;2024-01-30T06:48:52;10.40;99.90
47521;DHT22;32291;52.010;4.446;2024-01-30T06:49:55;10.40;99.90
47521;DHT22;32291;52.010;4.446;2024-01-30T06:51:01;10.40;99.90
47521;DHT22;32291;52.010;4.446;2024-01-30T06:52:09;10.40;99.90
47521;DHT22;32291;52.010;4.446;2024-01-30T06:53:15;10.40;99.90
47521;DHT22;32291;52.010;4.446;2024-01-30T06:54:22;10.40;99.90
47521;DHT22;32291;52.010;4.446;2024-01-30T06:55:24;10.50;99.90
47521;DHT22;32291;52.010;4.446;2024-01-30T06:56:26;10.50;99.90
47521;DHT22;32291;52.010;4.446;2024-01-30T06:57:34;10.50;99.90
47521;DHT22;32291;52.010;4.446;2024-01-30T06:58:36;10.60;99.90
47521;DHT22;32291;52.010;4.446;2024-01-30T06:59:43;10.50;99.90
47521;DHT22;32291;52.010;4.446;2024-01-30T07:00:51;10.60;99.90
47521;DHT22;32291;52.010;4.446;2024-01-30T07:01:58;10.60;99.90
47521;DHT22;32291;52.010;4.446;2024-01-30T07:03:06;10.60;99.90
47521;DHT22;32291;52.010;4.446;2024-01-30T07:04:16;10.60;99.90